Terminal Aerodrome Forecast
Issued by NWS Jackson, KY

Home | Current Version | Previous Version | Text Only | Print | Product List | Glossary On
Versions: 1 2 3 4 5 6 7 8 9 10
287
FTUS43 KJKL 072339
TAFLOZ
TAF
KLOZ 072339Z 0800/0824 23004KT P6SM SCT150
     FM080600 23003KT P6SM BKN040 BKN100
     FM080830 23003KT 5SM -SHRA OVC015
     FM081000 24004KT 2SM -SHRA BR BKN008 OVC015
     FM081300 25006KT P6SM BKN009
     FM081600 26008KT 3SM -SHRA VCTS BKN012CB=

USA.gov is the U.S. government's official web portal to all federal, state and local government web resources and services.